Renato Guimarães

Olheiro-Chefe - Santa Cruz
5 Ago 2027
Quinta-feira
Processo

Personalidade

Adaptabilidade (10) Ambição (1) Controvérsia (14) Lealdade (18) Pressão (4) Profissionalismo (5) Espírito Esportivo (13) Temperamento (8)

Perfil

Estilo de Treinamento Democrático
Licença Nacional A
Determinação 10
Gestão de Pessoas 3
Motivação 6
Disciplina 8
Satisfação no Trabalho
100%
Fadiga
0%
Função Olheiro-Chefe
Salário 28.9K p/s
Contrato 14.03.2030

Desempenho

Comportamento Bom
Eficácia do Treinamento
46%
Desenvolvimento do Jogador
50%
Prevenção de Lesões
55%
Implementação Tática
55%

Eventos Recentes

Participou de uma reunião de recrutamento 14d atrás
Avaliou um jogador 14d atrás
Participou de uma reunião de recrutamento 21d atrás
Participou de uma reunião de recrutamento 28d atrás
Participou de uma reunião de recrutamento 35d atrás
Participou de uma reunião de recrutamento 42d atrás
Participou de uma reunião de recrutamento 49d atrás
Apresentou um dossiê à direção 49d atrás

Monitorando agora

178
Jogador Clube Status Habilidade Confiança Observado Última observação Último voto
Aaron Drinan Swindon Town Ativo 116 / 100 40% 1 20.07.2027 -
Stephen Humphrys Bradford City Ativo 124 / 119 40% 1 20.07.2027 -
Aaron Morley Wycombe Wanderers Ativo 120 / 125 40% 1 20.07.2027 -
Ettore Gliozzi Mantova Ativo 109 / 118 40% 1 14.06.2027 -
Ryan Graydon Salford City Ativo 98 / 107 40% 1 14.06.2027 -
Juan Bezerra Zamalek Ativo 109 / 118 40% 2 30.05.2027 -
Ethan Williams Peterborough United Ativo 105 / 107 40% 1 30.05.2027 -
Samuel Justo Sporting CP Ativo 123 / 116 40% 2 29.05.2027 -
Salvador Blopá Sporting CP Ativo 123 / 126 40% 3 29.05.2027 -
Darragh Burns Grimsby Town Ativo 104 / 103 40% 5 28.05.2027 -
Paddy Lane Reading Ativo 103 / 120 40% 1 28.05.2027 -
Jack MacKenzie Plymouth Argyle Ativo 110 / 108 40% 1 28.05.2027 -
Idris Kanu Barnet Ativo 97 / 108 40% 3 27.05.2027 -
Dillon Hoogewerf Medeama Ativo 94 / 113 40% 2 27.05.2027 -
Leighton Clarkson Blackpool Ativo 112 / 128 40% 2 26.05.2027 -
Marcus Ifill Crewe Alexandra Ativo 117 / 112 40% 1 26.05.2027 -
Xavier Amaechi Plymouth Argyle Ativo 113 / 107 40% 4 22.05.2027 -
Joseph Hungbo Wigan Athletic Ativo 119 / 106 40% 3 22.05.2027 -
George Hall Port Vale Ativo 122 / 114 40% 2 22.05.2027 -
Declan Frith Peterborough United Ativo 108 / 98 40% 4 19.05.2027 -
Caylan Vickers Burton Albion Ativo 102 / 102 40% 1 19.05.2027 -
Tunde AVS Ativo 122 / 106 40% 4 18.05.2027 -
Armando Dobra Chesterfield Ativo 112 / 102 40% 1 17.05.2027 -
Phoenix Patterson Stevenage Ativo 113 / 108 40% 1 17.05.2027 -
Jack Moylan Lincoln City Ativo 119 / 106 40% 1 17.05.2027 -
Christian Saydee Wigan Athletic Ativo 110 / 113 40% 2 15.05.2027 -
Mohamadou Kanté Crawley Town Ativo 120 / 128 40% 2 15.05.2027 -
Ra'ees Bangura-Williams Millwall Ativo 119 / 124 40% 1 13.05.2027 -
Harry Leonard Peterborough United Ativo 118 / 103 40% 1 13.05.2027 -
Víctor Guzmán Sporting CP Ativo 98 / 92 40% 4 08.05.2027 -
Eduardo Fernandes Benfica Ativo 109 / 122 40% 3 08.05.2027 -
Giorgos Koutsias Famalicao Ativo 128 / 127 40% 4 07.05.2027 -
Malcolm Ebiowei Gillingham Ativo 111 / 111 40% 2 06.05.2027 -
André Miranda Porto Ativo 89 / 105 40% 1 05.05.2027 -
Bali Mumba Huddersfield Town Ativo 107 / 103 40% 1 02.05.2027 -
Ar'jany Martha Rotherham United Ativo 116 / 118 40% 2 29.04.2027 -
Davide Bragantini Mantova Ativo 119 / 129 40% 1 29.04.2027 -
Chem Campbell Stevenage Ativo 114 / 113 40% 1 27.04.2027 -
Wandile Duba ASO Chlef Ativo 118 / 92 40% 2 26.04.2027 -
Charlie Webster Burton Albion Ativo 102 / 120 40% 1 26.04.2027 -
Xavier Simons Bolton Wanderers Ativo 123 / 118 40% 1 24.04.2027 -
Peter Federico Gornik Zabrze Ativo 120 / 117 40% 4 21.04.2027 -
Calum Agius Crewe Alexandra Ativo 88 / 108 40% 1 21.04.2027 -
Amar Memić Viktoria Plzen Ativo 132 / 113 40% 2 18.04.2027 -
Tiago Freitas Benfica Ativo 100 / 119 40% 1 18.04.2027 -
Kyreece Lisbie Colchester United Ativo 109 / 97 40% 1 17.04.2027 -
Ilyas Ansah Hull City Ativo 135 / 128 40% 2 13.04.2027 -
Daniel Kyerewaa Reading Ativo 123 / 102 40% 1 13.04.2027 -
Cian Ashford Cardiff City Ativo 123 / 120 40% 1 13.04.2027 -
Bobby Clark Derby County Ativo 116 / 115 40% 3 11.04.2027 -
Sam Greenwood Bristol City Ativo 126 / 112 40% 2 11.04.2027 -
Tony Springett Cheltenham Town Ativo 97 / 98 40% 3 10.04.2027 -
Dale Taylor Blackpool Ativo 116 / 110 40% 2 10.04.2027 -
Alex Robertson Cardiff City Ativo 118 / 114 40% 2 09.04.2027 -
Sam Bell Bristol City Ativo 129 / 111 40% 1 09.04.2027 -
Jackson Muleka Konyaspor Ativo 129 / 126 40% 3 08.04.2027 -
Tyreece Campbell Charlton Athletic Ativo 127 / 124 40% 1 08.04.2027 -
Oliver Skipp Leicester City Ativo 124 / 134 40% 1 08.04.2027 -
Tyler Goodrham Oxford United Ativo 126 / 115 40% 1 07.04.2027 -
Derensili Sanches Fernandes Huddersfield Town Ativo 136 / 136 40% 2 04.04.2027 -
Stephen Amankona Aduana Stars Ativo 96 / 104 40% 1 03.04.2027 -
Tim Iroegbunam Hull City Ativo 133 / 134 40% 1 02.04.2027 -
Andre Brooks Sheffield United Ativo 127 / 140 40% 1 30.03.2027 -
Joel Bagan Cardiff City Ativo 113 / 125 40% 1 30.03.2027 -
Santi García Gil Vicente Ativo 141 / 132 40% 10 26.03.2027 -
Daniel Júnior Nacional Ativo 126 / 108 40% 5 26.03.2027 -
Vinícius Lopes Santa Clara Ativo 117 / 113 40% 7 26.03.2027 -
Jordan Holsgrove Estoril Praia Ativo 136 / 136 40% 6 24.03.2027 -
Ricard Sánchez Estoril Praia Ativo 114 / 109 40% 3 23.03.2027 -
Pedro Pelágio Chaves Ativo 121 / 97 40% 1 23.03.2027 -
Aaron Connolly Leyton Orient Ativo 116 / 120 40% 1 22.03.2027 -
Simo Maritimo Ativo 110 / 122 40% 7 21.03.2027 -
Luccas Paraízo Leixões Ativo 114 / 100 40% 1 21.03.2027 -
Isaiah Jones Luton Town Ativo 130 / 132 40% 2 18.03.2027 -
Ole Pohlmann Rio Ave Ativo 114 / 120 40% 2 18.03.2027 -
Rodrigo Pinheiro Famalicao Ativo 140 / 131 40% 4 17.03.2027 -
Olívio Tomé Benfica Ativo 112 / 119 40% 2 17.03.2027 -
Martín Tejón Maritimo Ativo 119 / 126 40% 1 17.03.2027 -
Facundo Cáseres Gil Vicente Ativo 117 / 114 40% 6 16.03.2027 -
Rafik Guitane Estoril Praia Ativo 134 / 134 40% 7 16.03.2027 -
Juan María Alcedo Torreense Ativo 114 / 109 40% 4 13.03.2027 -
João Teixeira Porto Ativo 97 / 104 40% 1 13.03.2027 -
Yanis Begraoui Estoril Praia Ativo 137 / 133 40% 12 12.03.2027 -
Brenner Santa Clara Ativo 118 / 117 40% 6 12.03.2027 -
Alfonso Trezza Arouca Ativo 121 / 135 40% 3 11.03.2027 -
Mathias De Amorim Famalicao Ativo 122 / 125 40% 3 11.03.2027 -
Malik Sellouki Rio Ave Ativo 118 / 120 40% 7 10.03.2027 -
Sorriso Famalicao Ativo 131 / 130 40% 8 09.03.2027 -
Lee Hyun-Ju Arouca Ativo 115 / 116 40% 7 06.03.2027 -
Tiago Ribeiro Oliveirense Ativo 99 / 108 40% 1 06.03.2027 -
Miguel Reisinho Feirense Ativo 118 / 124 40% 4 02.03.2027 -
Rodrigo Ramos Feirense Ativo 109 / 130 40% 1 02.03.2027 -
Luis Quintero Torreense Ativo 113 / 136 40% 3 28.02.2027 -
Ilias Sebaoui Sint-Truiden Ativo 120 / 130 40% 3 28.02.2027 -
Lorougnon Gohi Académico de Viseu Ativo 121 / 111 40% 6 26.02.2027 -
Nabil Touaizi Alverca Ativo 121 / 118 40% 3 26.02.2027 -
Miguel Baeza Nacional Ativo 122 / 125 40% 4 25.02.2027 -
Manu Pozo Torreense Ativo 113 / 132 40% 7 25.02.2027 -
Vitinho Santa Clara Ativo 120 / 114 40% 2 24.02.2027 -
Lovro Zvonarek Estrela da Amadora Ativo 121 / 117 40% 3 23.02.2027 -
Tyrese Campbell Sheffield United Ativo 132 / 113 40% 1 19.02.2027 -
Joe Hodge Tondela Ativo 125 / 119 40% 1 16.02.2027 -
Justo Giani Umraniyespor Ativo 122 / 122 40% 2 12.02.2027 -
Jason Knight Bristol City Ativo 121 / 124 40% 1 10.02.2027 -
Makan Aïko Tondela Ativo 112 / 132 40% 2 02.02.2027 -
Matías Lacava Vizela Ativo 118 / 105 40% 1 31.01.2027 -
Marley Aké Zulte Waregem Ativo 114 / 109 40% 1 27.01.2027 -
Alessio Zerbin Frosinone Ativo 136 / 117 40% 1 27.01.2027 -
Matchoi Djaló Nacional Ativo 103 / 112 40% 1 26.01.2027 -
Weverson Gil Vicente Ativo 115 / 126 40% 1 26.01.2027 -
Bernardes Benfica Ativo 108 / 109 40% 1 26.01.2027 -
Ezequiel Bullaude Santos Laguna Ativo 131 / 123 40% 1 18.01.2027 -
Matheus Dias Nacional Ativo 111 / 128 40% 2 16.01.2027 -
Figueiredo Alverca Ativo 120 / 120 40% 2 16.01.2027 -
Tiago Leite Felgueiras Ativo 102 / 94 40% 1 12.01.2027 -
Malik Mothersille Stockport County Ativo 124 / 115 40% 1 10.01.2027 -
Tristan Degreef Anderlecht Ativo 130 / 137 40% 1 07.01.2027 -
Max Johnston Derby County Ativo 130 / 114 40% 1 05.01.2027 -
Abraham Marcus Estrela da Amadora Ativo 122 / 127 40% 7 04.01.2027 Observar
Zé Leite Moreirense Ativo 117 / 109 40% 2 28.11.2026 -
Pablo Rosario Porto Ativo 141 / 152 40% 2 28.11.2026 -
Erick Vitória Ativo 118 / 120 40% 3 27.11.2026 -
Luís Esteves Atlas Ativo 138 / 131 40% 4 24.11.2026 -
Efrain Dos Santos Veracruz Ativo 133 / 132 40% 2 24.11.2026 -
Tiago Parente Estoril Praia Ativo 105 / 100 40% 1 24.11.2026 -
Maga Leiria Ativo 112 / 121 40% 1 23.11.2026 -
Valery Académico de Viseu Ativo 122 / 122 40% 3 21.11.2026 -
Cristian Ferreira Académico de Viseu Ativo 112 / 115 40% 3 21.11.2026 -
Ianis Stoica Estrela da Amadora Ativo 111 / 124 40% 1 19.11.2026 -
Maxime Dominguez Maritimo Ativo 119 / 138 40% 5 18.11.2026 -
Jordan van der Gaag Leiria Ativo 106 / 97 40% 1 18.11.2026 -
Marios Vrousai Rio Ave Ativo 120 / 112 40% 3 17.11.2026 -
Tiago Esgaio Arouca Ativo 133 / 115 40% 1 17.11.2026 -
Léo Teixeira Felgueiras Ativo 96 / 105 40% 1 16.11.2026 -
Pedro Maranhão Tondela Ativo 109 / 108 40% 2 15.11.2026 -
Tidjany Touré Gil Vicente Ativo 107 / 130 40% 1 15.11.2026 -
Felipe Valencia Cortulua Ativo 132 / 131 40% 1 14.11.2026 Mais informações
Kevin Velasco Puebla Ativo 109 / 105 40% 3 12.11.2026 -
Lucas Fernandes Bolton Wanderers Ativo 113 / 125 40% 1 09.11.2026 -
Jérémy Livolant Casa Pia Ativo 131 / 117 40% 4 07.11.2026 -
Chiheb Labidi Nacional Ativo 122 / 105 40% 1 07.11.2026 -
Zé Carlos Gil Vicente Ativo 132 / 122 40% 3 05.11.2026 -
Juan Muñoz Leiria Ativo 117 / 128 40% 3 04.11.2026 -
Vinicius Zanocelo Ceará Ativo 128 / 122 40% 1 04.11.2026 -
Pablo Fernández Leiria Ativo 117 / 106 40% 1 02.11.2026 -
Max Scholze Estrela da Amadora Ativo 109 / 122 40% 1 31.10.2026 -
Xeka Estoril Praia Ativo 136 / 133 40% 2 29.10.2026 -
Francisco Herrera Veracruz Ativo 114 / 135 40% 1 27.10.2026 -
Taichi Fukui Arouca Ativo 129 / 139 40% 1 26.10.2026 -
Reko Leiria Ativo 105 / 121 40% 1 23.10.2026 -
Dinis Pinto Moreirense Ativo 128 / 130 40% 1 19.10.2026 -
João Carvalho Estoril Praia Ativo 122 / 135 40% 2 18.10.2026 -
Mateja Stjepanović Moreirense Ativo 129 / 133 40% 1 08.10.2026 -
Matheuzinho Vitória Ativo 126 / 131 40% 1 30.09.2026 -
Alejandro Piedrahita Deportivo Pereira Ativo 119 / 128 40% 1 07.09.2026 -
Vasco Moreira Alverca Ativo 113 / 107 40% 2 06.09.2026 -
Tiago Dias Lusitânia Lourosa Ativo 106 / 102 40% 1 04.09.2026 -
Korede Osundina Casa Pia Ativo 112 / 106 40% 1 04.09.2026 -
Kiko Bondoso Moreirense Ativo 133 / 123 40% 1 30.08.2026 -
Lawrence Ofori Casa Pia Ativo 127 / 111 40% 1 24.08.2026 -
Gianluca Prestianni Benfica Ativo 132 / 144 40% 1 23.08.2026 -
Francisco Moura Porto Ativo 145 / 144 40% 2 22.08.2026 -
Rony Lopes Tondela Ativo 107 / 122 40% 1 22.08.2026 -
Denis Huseinbašić Braga Ativo 129 / 117 40% 1 22.08.2026 -
Liziero Nacional Ativo 123 / 134 40% 1 21.08.2026 -
Sergio Reguilón Inter Miami CF Ativo 132 / 142 40% 1 18.08.2026 -
Andre Green AVS Ativo 112 / 110 40% 1 17.08.2026 -
Zé Carlos Gil Vicente Ativo 112 / 119 40% 1 12.08.2026 -
Diogo Spencer Alverca Ativo 104 / 133 40% 1 10.08.2026 -
Tom van de Looi Famalicao Ativo 118 / 129 40% 3 08.08.2026 -
Luís Guilherme Sporting CP Ativo 120 / 132 40% 1 08.08.2026 -
Romain Correia Maritimo Ativo 118 / 128 40% 1 08.08.2026 -
Rafael Barbosa Felgueiras Ativo 122 / 95 40% 1 04.08.2026 -
Miguel Tavares Vizela Ativo 101 / 108 40% 1 04.08.2026 -
Alan RB Leipzig Ativo 139 / 114 40% 1 03.08.2026 -
Zaidu Sanusi Porto Ativo 126 / 135 40% 1 03.08.2026 -
Demir Ege Tıknaz Braga Ativo 130 / 119 40% 1 01.08.2026 -
Víctor Gómez Braga Ativo 125 / 140 40% 1 01.08.2026 -